createdAt,value
2023-02-05T00:00:24.437Z,-0.55
2023-02-05T00:02:53.241Z,-0.53
2023-02-05T00:05:23.400Z,-0.57
2023-02-05T00:07:52.351Z,-0.60
2023-02-05T00:10:21.111Z,-0.60
2023-02-05T00:12:49.993Z,-0.67
2023-02-05T00:15:19.214Z,-0.64
2023-02-05T00:17:48.031Z,-0.68
2023-02-05T00:20:16.673Z,-0.72
2023-02-05T00:22:46.851Z,-0.73
2023-02-05T00:25:15.594Z,-0.72
2023-02-05T00:27:44.273Z,-0.75
2023-02-05T00:30:14.133Z,-0.73
2023-02-05T00:32:42.936Z,-0.74
2023-02-05T00:35:11.737Z,-0.77
2023-02-05T00:37:40.505Z,-0.80
2023-02-05T00:40:11.844Z,-0.83
2023-02-05T00:42:40.685Z,-0.81
2023-02-05T00:45:10.619Z,-0.78
2023-02-05T00:47:39.414Z,-0.77
2023-02-05T00:50:08.595Z,-0.82
2023-02-05T00:52:37.466Z,-0.81
2023-02-05T00:55:07.024Z,-0.82
2023-02-05T00:57:36.955Z,-0.86
2023-02-05T01:00:07.247Z,-0.83
2023-02-05T01:02:36.091Z,-0.83
2023-02-05T01:05:06.157Z,-0.84
2023-02-05T01:07:35.088Z,-0.87
2023-02-05T01:10:04.018Z,-0.90
2023-02-05T01:12:33.483Z,-0.93
2023-02-05T01:15:05.067Z,-0.94
2023-02-05T01:17:34.022Z,-0.93
2023-02-05T01:20:02.861Z,-0.92
2023-02-05T01:22:31.632Z,-0.94
2023-02-05T01:25:00.385Z,-0.90
2023-02-05T01:27:29.203Z,-0.88
2023-02-05T01:29:57.879Z,-0.88
2023-02-05T01:32:29.756Z,-0.89
2023-02-05T01:34:58.984Z,-0.88
2023-02-05T01:37:27.699Z,-0.87
2023-02-05T01:39:56.828Z,-0.84
2023-02-05T01:42:27.725Z,-0.88
2023-02-05T01:45:17.473Z,-0.89
2023-02-05T01:47:47.697Z,-0.94
2023-02-05T01:50:17.066Z,-0.93
2023-02-05T01:52:46.937Z,-0.98
2023-02-05T01:55:16.544Z,-0.98
2023-02-05T01:57:45.414Z,-0.98
2023-02-05T02:00:15.004Z,-1.00
2023-02-05T02:02:43.613Z,-1.01
2023-02-05T02:05:17.365Z,-1.03
2023-02-05T02:07:47.232Z,-1.06
2023-02-05T02:10:19.161Z,-1.05
2023-02-05T02:12:50.156Z,-1.03
2023-02-05T02:15:24.348Z,-1.00
2023-02-05T02:18:17.551Z,-1.00
2023-02-05T02:20:54.836Z,-1.00
2023-02-05T02:23:29.825Z,-1.01
2023-02-05T02:26:26.598Z,-1.04
2023-02-05T02:29:01.744Z,-1.04
2023-02-05T02:31:36.422Z,-1.08
2023-02-05T02:34:15.420Z,-1.14
2023-02-05T02:36:51.935Z,-1.14
2023-02-05T02:39:28.605Z,-1.16
2023-02-05T02:42:03.974Z,-1.14
2023-02-05T02:44:37.884Z,-1.16
2023-02-05T02:47:14.077Z,-1.13
2023-02-05T02:49:48.467Z,-1.21
2023-02-05T02:52:21.511Z,-1.22
2023-02-05T02:54:54.166Z,-1.28
2023-02-05T02:57:30.295Z,-1.26
2023-02-05T03:00:03.462Z,-1.27
2023-02-05T03:02:37.923Z,-1.30
2023-02-05T03:05:11.147Z,-1.32
2023-02-05T03:07:44.692Z,-1.32
2023-02-05T03:10:20.555Z,-1.37
2023-02-05T03:12:50.020Z,-1.32
2023-02-05T03:15:20.482Z,-1.30
2023-02-05T03:17:52.290Z,-1.26
2023-02-05T03:20:26.946Z,-1.21
2023-02-05T03:22:58.475Z,-1.19
2023-02-05T03:25:30.390Z,-1.12
2023-02-05T03:28:01.046Z,-1.11
2023-02-05T03:30:46.895Z,-1.07
2023-02-05T03:33:32.914Z,-1.07
2023-02-05T03:36:12.423Z,-1.00
2023-02-05T03:38:54.222Z,-1.00
2023-02-05T03:41:48.680Z,-0.96
2023-02-05T03:44:29.900Z,-0.92
2023-02-05T03:47:07.324Z,-0.91
2023-02-05T03:49:52.746Z,-0.89
2023-02-05T03:52:28.783Z,-0.90
2023-02-05T03:55:07.553Z,-0.94
2023-02-05T03:57:44.929Z,-0.94
2023-02-05T04:00:15.431Z,-0.94
2023-02-05T04:02:48.496Z,-0.97
2023-02-05T04:05:23.247Z,-0.94
2023-02-05T04:07:54.922Z,-0.98
2023-02-05T04:10:28.265Z,-1.00
2023-02-05T04:12:59.226Z,-1.05
2023-02-05T04:15:28.413Z,-1.08
2023-02-05T04:18:01.528Z,-1.04
2023-02-05T04:20:32.126Z,-1.03
2023-02-05T04:23:02.083Z,-0.98
2023-02-05T04:25:33.603Z,-0.92
2023-02-05T04:28:02.562Z,-0.87
2023-02-05T04:30:33.348Z,-0.87
2023-02-05T04:33:04.009Z,-0.94
2023-02-05T04:35:33.635Z,-1.00
2023-02-05T04:38:02.680Z,-1.02
2023-02-05T04:40:31.272Z,-1.08
2023-02-05T04:43:00.300Z,-1.14
2023-02-05T04:45:31.474Z,-1.20
2023-02-05T04:48:01.082Z,-1.26
2023-02-05T04:50:31.172Z,-1.24
2023-02-05T04:53:02.283Z,-1.28
2023-02-05T04:55:33.509Z,-1.34
2023-02-05T04:58:03.115Z,-1.40
2023-02-05T05:00:31.807Z,-1.42
2023-02-05T05:03:00.634Z,-1.42
2023-02-05T05:05:31.496Z,-1.44
2023-02-05T05:08:01.717Z,-1.46
2023-02-05T05:10:30.524Z,-1.42
2023-02-05T05:12:59.476Z,-1.38
2023-02-05T05:15:28.209Z,-1.30
2023-02-05T05:17:56.884Z,-1.29
2023-02-05T05:20:25.786Z,-1.31
2023-02-05T05:22:55.895Z,-1.31
2023-02-05T05:25:24.826Z,-1.31
2023-02-05T05:27:53.601Z,-1.29
2023-02-05T05:30:22.547Z,-1.28
2023-02-05T05:32:51.234Z,-1.39
2023-02-05T05:35:20.040Z,-1.28
2023-02-05T05:37:48.753Z,-1.30
2023-02-05T05:40:29.226Z,-1.29
2023-02-05T05:43:07.846Z,-1.31
2023-02-05T05:45:36.603Z,-1.37
2023-02-05T05:48:05.759Z,-1.37
2023-02-05T05:50:34.468Z,-1.36
2023-02-05T05:53:03.530Z,-1.27
2023-02-05T05:55:33.902Z,-1.25
2023-02-05T05:58:02.883Z,-1.29
2023-02-05T06:00:31.612Z,-1.43
2023-02-05T06:03:00.552Z,-1.44
2023-02-05T06:05:29.186Z,-1.38
2023-02-05T06:07:57.984Z,-1.34
2023-02-05T06:10:27.100Z,-1.44
2023-02-05T06:12:58.169Z,-1.48
2023-02-05T06:15:27.420Z,-1.49
2023-02-05T06:17:56.219Z,-1.41
2023-02-05T06:20:25.214Z,-1.42
2023-02-05T06:22:53.953Z,-1.40
2023-02-05T06:25:22.714Z,-1.35
2023-02-05T06:27:51.386Z,-1.31
2023-02-05T06:30:21.820Z,-1.30
2023-02-05T06:32:50.603Z,-1.32
2023-02-05T06:35:19.621Z,-1.31
2023-02-05T06:37:48.841Z,-1.28
2023-02-05T06:40:22.635Z,-1.21
2023-02-05T06:42:51.439Z,-1.07
2023-02-05T06:45:21.605Z,-1.00
2023-02-05T06:47:53.109Z,-1.04
2023-02-05T06:50:21.863Z,-0.98
2023-02-05T06:52:51.498Z,-1.00
2023-02-05T06:55:20.430Z,-0.98
2023-02-05T06:57:49.175Z,-0.89
2023-02-05T07:00:19.175Z,-0.63
2023-02-05T07:02:49.419Z,-0.43
2023-02-05T07:05:18.159Z,-0.32
2023-02-05T07:07:48.999Z,-0.26
2023-02-05T07:10:18.983Z,-0.18
2023-02-05T07:12:47.668Z,-0.07
2023-02-05T07:15:16.598Z,-0.01
2023-02-05T07:17:45.400Z,0.06
2023-02-05T07:20:17.132Z,0.12
2023-02-05T07:22:48.462Z,0.24
2023-02-05T07:25:17.451Z,0.26
2023-02-05T07:27:46.269Z,0.41
2023-02-05T07:30:16.308Z,0.60
2023-02-05T07:32:45.076Z,0.73
2023-02-05T07:35:13.764Z,0.84
2023-02-05T07:37:43.873Z,0.82
2023-02-05T07:40:13.434Z,0.85
2023-02-05T07:42:42.165Z,0.95
2023-02-05T07:45:11.689Z,1.01
2023-02-05T07:47:40.404Z,1.18
2023-02-05T07:50:09.965Z,1.30
2023-02-05T07:52:38.714Z,1.28
2023-02-05T07:55:10.313Z,1.21
2023-02-05T07:57:39.104Z,1.27
2023-02-05T08:00:09.885Z,1.38
2023-02-05T08:02:41.614Z,1.34
2023-02-05T08:05:10.834Z,1.47
2023-02-05T08:07:40.053Z,1.51
2023-02-05T08:10:14.769Z,1.55
2023-02-05T08:12:43.515Z,1.56
2023-02-05T08:15:12.474Z,1.48
2023-02-05T08:17:41.367Z,1.41
2023-02-05T08:20:11.141Z,1.35
2023-02-05T08:22:41.923Z,1.32
2023-02-05T08:25:15.150Z,1.31
2023-02-05T08:27:44.660Z,1.35
2023-02-05T08:30:15.792Z,1.53
2023-02-05T08:32:48.397Z,1.57
2023-02-05T08:35:17.481Z,1.51
2023-02-05T08:37:46.134Z,1.64
2023-02-05T08:40:16.374Z,1.70
2023-02-05T08:42:45.744Z,1.61
2023-02-05T08:45:14.461Z,1.63
2023-02-05T08:47:43.129Z,1.58
2023-02-05T08:50:12.499Z,1.54
2023-02-05T08:52:41.236Z,1.50
2023-02-05T08:55:10.220Z,1.67
2023-02-05T08:57:40.725Z,1.70
2023-02-05T09:00:10.695Z,1.77
2023-02-05T09:02:39.499Z,1.75
2023-02-05T09:05:09.740Z,1.75
2023-02-05T09:07:40.498Z,1.65
2023-02-05T09:10:10.445Z,1.56
2023-02-05T09:12:41.057Z,1.67
2023-02-05T09:15:11.114Z,1.73
2023-02-05T09:17:39.851Z,1.63
2023-02-05T09:20:09.525Z,1.71
2023-02-05T09:22:38.846Z,1.52
2023-02-05T09:25:08.541Z,1.54
2023-02-05T09:27:37.165Z,1.76
2023-02-05T09:30:08.225Z,1.72
2023-02-05T09:32:37.099Z,1.59
2023-02-05T09:35:05.943Z,1.66
2023-02-05T09:37:34.676Z,1.73
2023-02-05T09:40:20.855Z,1.88
2023-02-05T09:43:00.917Z,1.79
2023-02-05T09:45:50.057Z,1.64
2023-02-05T09:48:50.043Z,1.52
2023-02-05T09:51:23.274Z,1.57
2023-02-05T09:53:58.962Z,1.64
2023-02-05T09:56:29.639Z,1.58
2023-02-05T09:59:00.046Z,1.63
2023-02-05T10:01:42.979Z,1.56
2023-02-05T10:04:12.423Z,1.56
2023-02-05T10:07:06.882Z,1.48
2023-02-05T10:09:49.410Z,1.60
2023-02-05T10:12:34.177Z,1.52
2023-02-05T10:15:29.015Z,1.59
2023-02-05T10:18:11.305Z,1.76
2023-02-05T10:20:55.912Z,1.76
2023-02-05T10:23:45.025Z,1.84
2023-02-05T10:26:16.021Z,1.88
2023-02-05T10:29:10.788Z,2.12
2023-02-05T10:31:45.201Z,2.07
2023-02-05T10:34:33.582Z,1.89
2023-02-05T10:39:36.971Z,1.93
2023-02-05T10:42:16.264Z,2.00
2023-02-05T10:44:48.029Z,2.21
2023-02-05T10:47:24.537Z,2.04
2023-02-05T10:49:59.673Z,2.00
2023-02-05T10:52:28.699Z,2.00
2023-02-05T10:54:57.446Z,2.10
2023-02-05T10:57:29.948Z,2.08
2023-02-05T11:00:03.650Z,2.13
2023-02-05T11:02:39.662Z,2.10
2023-02-05T11:05:23.023Z,2.12
2023-02-05T11:07:53.807Z,2.27
2023-02-05T11:10:25.010Z,2.41
2023-02-05T11:12:56.697Z,2.63
2023-02-05T11:15:28.121Z,2.41
2023-02-05T11:18:00.329Z,2.31
2023-02-05T11:20:34.007Z,2.45
2023-02-05T11:23:17.526Z,2.39
2023-02-05T11:25:54.552Z,2.27
2023-02-05T11:28:27.959Z,2.14
2023-02-05T11:30:57.862Z,2.51
2023-02-05T11:33:31.573Z,2.76
2023-02-05T11:36:08.385Z,2.94
2023-02-05T11:38:45.794Z,2.99
2023-02-05T11:41:28.892Z,2.68
2023-02-05T11:44:00.312Z,2.62
2023-02-05T11:46:33.733Z,2.49
2023-02-05T11:49:05.120Z,2.64
2023-02-05T11:51:55.797Z,2.77
2023-02-05T11:54:29.938Z,2.82
2023-02-05T11:57:08.222Z,3.22
2023-02-05T11:59:37.905Z,3.28
2023-02-05T12:02:22.119Z,2.93
2023-02-05T12:04:52.603Z,2.87
2023-02-05T12:07:25.053Z,2.87
2023-02-05T12:09:59.606Z,3.14
2023-02-05T12:12:35.915Z,2.96
2023-02-05T12:15:16.830Z,3.18
2023-02-05T12:17:54.317Z,3.35
2023-02-05T12:20:30.235Z,3.55
2023-02-05T12:23:20.406Z,3.42
2023-02-05T12:26:00.162Z,3.46
2023-02-05T12:28:41.957Z,3.58
2023-02-05T12:31:22.431Z,3.40
2023-02-05T12:34:11.379Z,3.24
2023-02-05T12:36:58.494Z,3.06
2023-02-05T12:39:40.238Z,2.99
2023-02-05T12:42:25.691Z,2.92
2023-02-05T12:45:26.163Z,3.19
2023-02-05T12:48:20.411Z,3.34
2023-02-05T12:51:08.776Z,3.59
2023-02-05T12:53:53.215Z,3.62
2023-02-05T12:56:45.335Z,3.59
2023-02-05T12:59:19.016Z,3.50
2023-02-05T13:01:52.470Z,3.41
2023-02-05T13:04:29.915Z,3.24
2023-02-05T13:07:05.823Z,3.13
2023-02-05T13:09:45.203Z,3.04
2023-02-05T13:12:19.344Z,3.04
2023-02-05T13:14:59.202Z,3.13
2023-02-05T13:17:30.172Z,3.12
2023-02-05T13:20:03.203Z,3.16
2023-02-05T13:22:48.631Z,3.06
2023-02-05T13:25:38.238Z,2.99
2023-02-05T13:28:40.636Z,2.78
2023-02-05T13:31:16.984Z,2.65
2023-02-05T13:33:46.273Z,2.72
2023-02-05T13:36:42.862Z,2.77
2023-02-05T13:39:34.569Z,2.54
2023-02-05T13:42:30.204Z,2.33
2023-02-05T13:45:38.409Z,2.52
2023-02-05T13:48:43.030Z,2.59
2023-02-05T13:51:35.347Z,2.58
2023-02-05T13:54:26.809Z,2.63
2023-02-05T13:57:14.232Z,2.54
2023-02-05T13:59:51.811Z,2.49
2023-02-05T14:02:33.609Z,2.36
2023-02-05T14:05:04.382Z,2.45
2023-02-05T14:07:36.688Z,2.51
2023-02-05T14:10:06.616Z,2.39
2023-02-05T14:12:38.295Z,2.31
2023-02-05T14:15:26.329Z,2.11
2023-02-05T14:17:57.312Z,1.91
2023-02-05T14:20:35.747Z,1.80
2023-02-05T14:23:13.405Z,1.72
2023-02-05T14:26:08.638Z,1.61
2023-02-05T14:28:51.925Z,1.43
2023-02-05T14:31:42.409Z,1.29
2023-02-05T14:34:32.911Z,1.19
2023-02-05T14:37:03.692Z,1.10
2023-02-05T14:39:34.906Z,0.93
2023-02-05T14:42:06.817Z,0.87
2023-02-05T14:44:40.963Z,0.81
2023-02-05T14:47:22.417Z,0.79
2023-02-05T14:49:53.349Z,0.71
2023-02-05T14:52:29.989Z,0.65
2023-02-05T14:55:03.531Z,0.67
2023-02-05T14:57:43.060Z,0.67
2023-02-05T15:00:22.539Z,0.62
2023-02-05T15:03:32.421Z,0.64
2023-02-05T15:06:05.684Z,0.53
2023-02-05T15:08:46.040Z,0.50
2023-02-05T15:11:28.661Z,0.42
2023-02-05T15:14:32.876Z,0.39
2023-02-05T15:17:23.427Z,0.38
2023-02-05T15:19:56.962Z,0.33
2023-02-05T15:22:31.267Z,0.27
2023-02-05T15:25:03.783Z,0.23
2023-02-05T15:27:42.977Z,0.27
2023-02-05T15:30:19.906Z,0.24
2023-02-05T15:32:53.776Z,0.20
2023-02-05T15:35:26.221Z,0.15
2023-02-05T15:37:57.944Z,0.15
2023-02-05T15:40:32.290Z,0.05
2023-02-05T15:43:02.846Z,0.02
2023-02-05T15:45:34.626Z,-0.06
2023-02-05T15:48:07.626Z,-0.15
2023-02-05T15:50:39.383Z,-0.23
2023-02-05T15:53:11.437Z,-0.26
2023-02-05T15:55:41.684Z,-0.29
2023-02-05T15:58:16.848Z,-0.36
2023-02-05T16:00:48.023Z,-0.37
2023-02-05T16:03:27.786Z,-0.39
2023-02-05T16:05:57.319Z,-0.47
2023-02-05T16:08:28.542Z,-0.47
2023-02-05T16:11:02.486Z,-0.57
2023-02-05T16:13:31.488Z,-0.60
2023-02-05T16:16:06.232Z,-0.63
2023-02-05T16:18:41.278Z,-0.66
2023-02-05T16:21:17.806Z,-0.64
2023-02-05T16:23:52.965Z,-0.73
2023-02-05T16:26:28.585Z,-0.79
2023-02-05T16:28:59.797Z,-0.87
2023-02-05T16:31:30.803Z,-0.90
2023-02-05T16:34:03.624Z,-0.86
2023-02-05T16:36:36.014Z,-0.89
2023-02-05T16:39:08.502Z,-1.00
2023-02-05T16:41:41.653Z,-1.03
2023-02-05T16:44:31.784Z,-1.07
2023-02-05T16:47:13.090Z,-1.09
2023-02-05T16:49:42.861Z,-1.08
2023-02-05T16:52:30.993Z,-1.07
2023-02-05T16:55:00.618Z,-1.21
2023-02-05T16:57:33.801Z,-1.29
2023-02-05T17:00:06.399Z,-1.32
2023-02-05T17:02:39.987Z,-1.27
2023-02-05T17:05:23.543Z,-1.30
2023-02-05T17:07:57.372Z,-1.45
2023-02-05T17:10:26.572Z,-1.50
2023-02-05T17:12:58.685Z,-1.53
2023-02-05T17:15:40.382Z,-1.55
2023-02-05T17:18:24.589Z,-1.59
2023-02-05T17:20:53.466Z,-1.59
2023-02-05T17:23:22.194Z,-1.58
2023-02-05T17:25:57.108Z,-1.58
2023-02-05T17:28:29.988Z,-1.59
2023-02-05T17:30:59.871Z,-1.61
2023-02-05T17:33:30.137Z,-1.63
2023-02-05T17:35:59.168Z,-1.62
2023-02-05T17:38:27.899Z,-1.66
2023-02-05T17:41:10.752Z,-1.67
2023-02-05T17:43:41.037Z,-1.75
2023-02-05T17:46:14.297Z,-1.78
2023-02-05T17:48:44.892Z,-1.83
2023-02-05T17:51:20.902Z,-1.84
2023-02-05T17:53:50.232Z,-1.89
2023-02-05T17:56:21.762Z,-1.94
2023-02-05T17:58:53.483Z,-1.96
2023-02-05T18:01:22.667Z,-2.04
2023-02-05T18:03:51.453Z,-2.10
2023-02-05T18:06:20.801Z,-2.07
2023-02-05T18:08:49.510Z,-2.08
2023-02-05T18:11:18.166Z,-2.06
2023-02-05T18:13:46.894Z,-2.09
2023-02-05T18:16:17.150Z,-2.22
2023-02-05T18:18:45.941Z,-2.15
2023-02-05T18:21:14.874Z,-2.12
2023-02-05T18:23:43.795Z,-2.12
2023-02-05T18:26:12.452Z,-2.15
2023-02-05T18:28:41.296Z,-2.19
2023-02-05T18:31:11.570Z,-2.25
2023-02-05T18:33:42.453Z,-2.27
2023-02-05T18:36:13.094Z,-2.33
2023-02-05T18:38:43.161Z,-2.37
2023-02-05T18:41:14.785Z,-2.37
2023-02-05T18:43:43.813Z,-2.47
2023-02-05T18:46:15.769Z,-2.46
2023-02-05T18:48:46.352Z,-2.46
2023-02-05T18:51:17.306Z,-2.46
2023-02-05T18:53:47.803Z,-2.45
2023-02-05T18:56:18.443Z,-2.48
2023-02-05T18:58:53.757Z,-2.51
2023-02-05T19:01:22.804Z,-2.51
2023-02-05T19:03:55.057Z,-2.54
2023-02-05T19:06:24.370Z,-2.55
2023-02-05T19:08:53.143Z,-2.59
2023-02-05T19:11:25.254Z,-2.56
2023-02-05T19:13:57.700Z,-2.54
2023-02-05T19:16:27.320Z,-2.58
2023-02-05T19:18:57.984Z,-2.60
2023-02-05T19:21:29.701Z,-2.65
2023-02-05T19:24:01.178Z,-2.71
2023-02-05T19:26:31.200Z,-2.68
2023-02-05T19:29:01.244Z,-2.74
2023-02-05T19:31:32.061Z,-2.79
2023-02-05T19:34:03.007Z,-2.82
2023-02-05T19:36:32.358Z,-2.82
2023-02-05T19:39:01.658Z,-2.83
2023-02-05T19:41:30.470Z,-2.85
2023-02-05T19:44:02.883Z,-2.88
2023-02-05T19:46:33.563Z,-2.92
2023-02-05T19:49:05.598Z,-2.92
2023-02-05T19:51:34.770Z,-2.92
2023-02-05T19:54:05.310Z,-2.93
2023-02-05T19:56:37.973Z,-2.94
2023-02-05T19:59:07.483Z,-2.98
2023-02-05T20:01:38.379Z,-3.00
2023-02-05T20:04:16.014Z,-3.03
2023-02-05T20:06:47.126Z,-3.03
2023-02-05T20:09:16.750Z,-3.01
2023-02-05T20:11:46.238Z,-3.01
2023-02-05T20:14:15.615Z,-3.05
2023-02-05T20:16:45.691Z,-3.15
2023-02-05T20:19:18.435Z,-3.16
2023-02-05T20:21:48.007Z,-3.18
2023-02-05T20:24:17.479Z,-3.19
2023-02-05T20:26:48.030Z,-3.17
2023-02-05T20:29:27.199Z,-3.21
2023-02-05T20:31:57.611Z,-3.24
2023-02-05T20:34:31.263Z,-3.29
2023-02-05T20:37:04.416Z,-3.29
2023-02-05T20:39:35.612Z,-3.36
2023-02-05T20:42:04.889Z,-3.37
2023-02-05T20:44:36.566Z,-3.40
2023-02-05T20:47:06.005Z,-3.42
2023-02-05T20:49:42.971Z,-3.40
2023-02-05T20:52:13.486Z,-3.37
2023-02-05T20:54:43.451Z,-3.47
2023-02-05T20:57:12.394Z,-3.48
2023-02-05T20:59:41.915Z,-3.50
2023-02-05T21:02:11.679Z,-3.43
2023-02-05T21:04:42.072Z,-3.44
2023-02-05T21:07:10.854Z,-3.48
2023-02-05T21:09:39.471Z,-3.49
2023-02-05T21:12:09.343Z,-3.56
2023-02-05T21:14:38.784Z,-3.59
2023-02-05T21:17:09.418Z,-3.62
2023-02-05T21:19:38.162Z,-3.67
2023-02-05T21:22:08.255Z,-3.73
2023-02-05T21:24:37.092Z,-3.78
2023-02-05T21:27:05.813Z,-3.83
2023-02-05T21:29:34.856Z,-3.82
2023-02-05T21:32:03.497Z,-3.84
2023-02-05T21:34:32.247Z,-3.85
2023-02-05T21:37:01.035Z,-3.88
2023-02-05T21:39:31.370Z,-3.92
2023-02-05T21:42:00.141Z,-3.94
2023-02-05T21:44:29.078Z,-3.91
2023-02-05T21:46:57.901Z,-3.86
2023-02-05T21:49:26.533Z,-3.94
2023-02-05T21:51:56.038Z,-4.01
2023-02-05T21:54:25.778Z,-4.14
2023-02-05T21:56:56.449Z,-4.21
2023-02-05T21:59:25.425Z,-4.24
2023-02-05T22:01:54.176Z,-4.23
2023-02-05T22:04:23.322Z,-4.16
2023-02-05T22:06:52.436Z,-4.09
2023-02-05T22:09:21.595Z,-4.08
2023-02-05T22:11:52.034Z,-4.07
2023-02-05T22:14:22.220Z,-4.00
2023-02-05T22:16:51.014Z,-3.97
2023-02-05T22:19:19.723Z,-3.97
2023-02-05T22:21:48.815Z,-3.93
2023-02-05T22:24:19.631Z,-3.98
2023-02-05T22:26:48.975Z,-3.98
2023-02-05T22:29:19.221Z,-3.94
2023-02-05T22:31:51.624Z,-4.06
2023-02-05T22:34:20.419Z,-4.25
2023-02-05T22:36:49.291Z,-4.09
2023-02-05T22:39:18.207Z,-4.15
2023-02-05T22:41:46.890Z,-4.17
2023-02-05T22:44:15.708Z,-4.22
2023-02-05T22:46:46.036Z,-4.21
2023-02-05T22:49:16.502Z,-4.32
2023-02-05T22:51:45.938Z,-4.32
2023-02-05T22:54:16.070Z,-4.42
2023-02-05T22:56:44.903Z,-4.47
2023-02-05T22:59:14.145Z,-4.43
2023-02-05T23:01:42.915Z,-4.41
2023-02-05T23:04:12.049Z,-4.35
2023-02-05T23:06:45.409Z,-4.37
2023-02-05T23:09:16.534Z,-4.40
2023-02-05T23:11:45.751Z,-4.35
2023-02-05T23:14:16.259Z,-4.39
2023-02-05T23:16:47.250Z,-4.45
2023-02-05T23:19:19.330Z,-4.44
2023-02-05T23:21:50.301Z,-4.43
2023-02-05T23:24:19.480Z,-4.42
2023-02-05T23:26:51.259Z,-4.38
2023-02-05T23:29:20.549Z,-4.35
2023-02-05T23:31:49.353Z,-4.41
2023-02-05T23:34:18.401Z,-4.44
2023-02-05T23:36:48.504Z,-4.46
2023-02-05T23:39:17.293Z,-4.45
2023-02-05T23:41:46.044Z,-4.50
2023-02-05T23:44:16.237Z,-4.46
2023-02-05T23:46:45.572Z,-4.55
2023-02-05T23:49:15.529Z,-4.67
2023-02-05T23:51:44.790Z,-4.66
2023-02-05T23:54:15.166Z,-4.60
2023-02-05T23:56:44.040Z,-4.60
2023-02-05T23:59:13.515Z,-4.65
